sensor_id;sensor_type;location;lat;lon;timestamp;P1;durP1;ratioP1;P2;durP2;ratioP2
22614;SDS011;11474;50.790;0.298;2023-04-03T00:01:58;15.95;;;3.13;;
22614;SDS011;11474;50.790;0.298;2023-04-03T00:04:24;12.63;;;2.90;;
22614;SDS011;11474;50.790;0.298;2023-04-03T00:06:50;17.95;;;3.40;;
22614;SDS011;11474;50.790;0.298;2023-04-03T00:09:16;15.20;;;3.15;;
22614;SDS011;11474;50.790;0.298;2023-04-03T00:11:42;10.50;;;2.50;;
22614;SDS011;11474;50.790;0.298;2023-04-03T00:14:08;11.55;;;3.00;;
22614;SDS011;11474;50.790;0.298;2023-04-03T00:16:34;16.23;;;2.78;;
22614;SDS011;11474;50.790;0.298;2023-04-03T00:19:00;16.50;;;2.40;;
22614;SDS011;11474;50.790;0.298;2023-04-03T00:21:26;13.40;;;2.63;;
22614;SDS011;11474;50.790;0.298;2023-04-03T00:23:52;15.90;;;2.75;;
22614;SDS011;11474;50.790;0.298;2023-04-03T00:26:18;12.30;;;2.60;;
22614;SDS011;11474;50.790;0.298;2023-04-03T00:28:45;13.32;;;3.05;;
22614;SDS011;11474;50.790;0.298;2023-04-03T00:31:14;13.85;;;2.78;;
22614;SDS011;11474;50.790;0.298;2023-04-03T00:33:40;14.57;;;2.83;;
22614;SDS011;11474;50.790;0.298;2023-04-03T00:36:07;13.32;;;3.03;;
22614;SDS011;11474;50.790;0.298;2023-04-03T00:38:34;13.02;;;2.72;;
22614;SDS011;11474;50.790;0.298;2023-04-03T00:41:00;14.45;;;3.10;;
22614;SDS011;11474;50.790;0.298;2023-04-03T00:43:26;19.10;;;2.80;;
22614;SDS011;11474;50.790;0.298;2023-04-03T00:45:53;13.73;;;3.05;;
22614;SDS011;11474;50.790;0.298;2023-04-03T00:48:20;16.23;;;2.55;;
22614;SDS011;11474;50.790;0.298;2023-04-03T00:50:48;15.50;;;3.20;;
22614;SDS011;11474;50.790;0.298;2023-04-03T00:53:16;9.77;;;2.28;;
22614;SDS011;11474;50.790;0.298;2023-04-03T00:55:42;15.57;;;2.75;;
22614;SDS011;11474;50.790;0.298;2023-04-03T00:58:09;13.32;;;2.90;;
22614;SDS011;11474;50.790;0.298;2023-04-03T01:00:37;13.63;;;2.40;;
22614;SDS011;11474;50.790;0.298;2023-04-03T01:03:04;14.68;;;2.53;;
22614;SDS011;11474;50.790;0.298;2023-04-03T01:05:30;11.73;;;2.38;;
22614;SDS011;11474;50.790;0.298;2023-04-03T01:07:56;11.73;;;2.65;;
22614;SDS011;11474;50.790;0.298;2023-04-03T01:10:22;12.75;;;2.38;;
22614;SDS011;11474;50.790;0.298;2023-04-03T01:12:50;16.50;;;2.73;;
22614;SDS011;11474;50.790;0.298;2023-04-03T01:15:22;16.08;;;2.60;;
22614;SDS011;11474;50.790;0.298;2023-04-03T01:17:49;14.38;;;2.63;;
22614;SDS011;11474;50.790;0.298;2023-04-03T01:25:30;16.58;;;2.85;;
22614;SDS011;11474;50.790;0.298;2023-04-03T01:27:56;8.23;;;2.33;;
22614;SDS011;11474;50.790;0.298;2023-04-03T01:30:24;15.00;;;2.70;;
22614;SDS011;11474;50.790;0.298;2023-04-03T01:32:51;11.15;;;2.55;;
22614;SDS011;11474;50.790;0.298;2023-04-03T01:35:17;14.48;;;2.60;;
22614;SDS011;11474;50.790;0.298;2023-04-03T01:37:43;10.98;;;2.85;;
22614;SDS011;11474;50.790;0.298;2023-04-03T01:40:09;10.47;;;2.60;;
22614;SDS011;11474;50.790;0.298;2023-04-03T01:42:35;12.02;;;2.65;;
22614;SDS011;11474;50.790;0.298;2023-04-03T01:45:01;13.48;;;2.92;;
22614;SDS011;11474;50.790;0.298;2023-04-03T01:47:28;17.33;;;2.25;;
22614;SDS011;11474;50.790;0.298;2023-04-03T01:49:54;16.53;;;2.73;;
22614;SDS011;11474;50.790;0.298;2023-04-03T01:52:20;20.85;;;2.90;;
22614;SDS011;11474;50.790;0.298;2023-04-03T01:54:46;14.82;;;2.50;;
22614;SDS011;11474;50.790;0.298;2023-04-03T01:57:12;17.05;;;2.60;;
22614;SDS011;11474;50.790;0.298;2023-04-03T01:59:40;13.40;;;2.42;;
22614;SDS011;11474;50.790;0.298;2023-04-03T02:02:06;17.17;;;2.60;;
22614;SDS011;11474;50.790;0.298;2023-04-03T02:04:32;15.40;;;2.50;;
22614;SDS011;11474;50.790;0.298;2023-04-03T02:06:58;14.77;;;2.80;;
22614;SDS011;11474;50.790;0.298;2023-04-03T02:09:24;14.30;;;2.97;;
22614;SDS011;11474;50.790;0.298;2023-04-03T02:11:52;15.60;;;2.40;;
22614;SDS011;11474;50.790;0.298;2023-04-03T02:14:18;11.88;;;2.33;;
22614;SDS011;11474;50.790;0.298;2023-04-03T02:16:45;11.85;;;2.70;;
22614;SDS011;11474;50.790;0.298;2023-04-03T02:19:11;14.43;;;2.58;;
22614;SDS011;11474;50.790;0.298;2023-04-03T02:21:37;13.02;;;2.80;;
22614;SDS011;11474;50.790;0.298;2023-04-03T02:24:03;18.33;;;2.77;;
22614;SDS011;11474;50.790;0.298;2023-04-03T02:26:29;10.07;;;2.15;;
22614;SDS011;11474;50.790;0.298;2023-04-03T02:28:55;15.13;;;3.15;;
22614;SDS011;11474;50.790;0.298;2023-04-03T02:31:21;12.67;;;2.50;;
22614;SDS011;11474;50.790;0.298;2023-04-03T02:33:49;13.05;;;2.35;;
22614;SDS011;11474;50.790;0.298;2023-04-03T02:36:16;15.40;;;2.63;;
22614;SDS011;11474;50.790;0.298;2023-04-03T02:38:42;16.75;;;2.53;;
22614;SDS011;11474;50.790;0.298;2023-04-03T02:41:09;13.77;;;2.55;;
22614;SDS011;11474;50.790;0.298;2023-04-03T02:43:36;9.65;;;2.40;;
22614;SDS011;11474;50.790;0.298;2023-04-03T02:46:03;11.85;;;2.33;;
22614;SDS011;11474;50.790;0.298;2023-04-03T02:48:29;9.53;;;2.60;;
22614;SDS011;11474;50.790;0.298;2023-04-03T02:50:56;17.42;;;2.80;;
22614;SDS011;11474;50.790;0.298;2023-04-03T02:53:22;17.33;;;2.67;;
22614;SDS011;11474;50.790;0.298;2023-04-03T02:55:48;12.65;;;2.20;;
22614;SDS011;11474;50.790;0.298;2023-04-03T02:58:15;13.57;;;2.55;;
22614;SDS011;11474;50.790;0.298;2023-04-03T03:00:41;14.38;;;2.30;;
22614;SDS011;11474;50.790;0.298;2023-04-03T03:03:07;14.52;;;2.70;;
22614;SDS011;11474;50.790;0.298;2023-04-03T03:05:33;10.55;;;2.30;;
22614;SDS011;11474;50.790;0.298;2023-04-03T03:07:59;14.10;;;3.08;;
22614;SDS011;11474;50.790;0.298;2023-04-03T03:10:25;8.57;;;2.40;;
22614;SDS011;11474;50.790;0.298;2023-04-03T03:12:51;14.38;;;2.80;;
22614;SDS011;11474;50.790;0.298;2023-04-03T03:15:18;8.13;;;2.22;;
22614;SDS011;11474;50.790;0.298;2023-04-03T03:17:44;12.00;;;2.40;;
22614;SDS011;11474;50.790;0.298;2023-04-03T03:20:10;13.60;;;2.55;;
22614;SDS011;11474;50.790;0.298;2023-04-03T03:22:39;15.52;;;2.65;;
22614;SDS011;11474;50.790;0.298;2023-04-03T03:25:05;13.90;;;2.92;;
22614;SDS011;11474;50.790;0.298;2023-04-03T03:27:31;16.48;;;2.83;;
22614;SDS011;11474;50.790;0.298;2023-04-03T03:29:57;13.55;;;3.33;;
22614;SDS011;11474;50.790;0.298;2023-04-03T03:32:23;11.40;;;2.92;;
22614;SDS011;11474;50.790;0.298;2023-04-03T03:34:50;18.50;;;3.55;;
22614;SDS011;11474;50.790;0.298;2023-04-03T03:37:16;15.30;;;3.30;;
22614;SDS011;11474;50.790;0.298;2023-04-03T03:39:42;14.55;;;3.15;;
22614;SDS011;11474;50.790;0.298;2023-04-03T03:42:08;13.57;;;2.97;;
22614;SDS011;11474;50.790;0.298;2023-04-03T03:44:34;14.70;;;2.77;;
22614;SDS011;11474;50.790;0.298;2023-04-03T03:47:00;13.98;;;2.70;;
22614;SDS011;11474;50.790;0.298;2023-04-03T03:49:27;15.02;;;3.42;;
22614;SDS011;11474;50.790;0.298;2023-04-03T03:51:53;13.52;;;3.05;;
22614;SDS011;11474;50.790;0.298;2023-04-03T03:54:20;19.35;;;3.25;;
22614;SDS011;11474;50.790;0.298;2023-04-03T03:56:46;13.45;;;3.33;;
22614;SDS011;11474;50.790;0.298;2023-04-03T03:59:12;20.45;;;3.38;;
22614;SDS011;11474;50.790;0.298;2023-04-03T04:01:38;15.15;;;3.22;;
22614;SDS011;11474;50.790;0.298;2023-04-03T04:04:04;16.35;;;3.28;;
22614;SDS011;11474;50.790;0.298;2023-04-03T04:06:30;12.00;;;3.00;;
22614;SDS011;11474;50.790;0.298;2023-04-03T04:08:56;10.98;;;2.83;;
22614;SDS011;11474;50.790;0.298;2023-04-03T04:11:23;11.50;;;3.10;;
22614;SDS011;11474;50.790;0.298;2023-04-03T04:13:49;14.05;;;3.33;;
22614;SDS011;11474;50.790;0.298;2023-04-03T04:16:15;15.15;;;3.17;;
22614;SDS011;11474;50.790;0.298;2023-04-03T04:18:41;16.83;;;3.53;;
22614;SDS011;11474;50.790;0.298;2023-04-03T04:21:07;12.50;;;3.38;;
22614;SDS011;11474;50.790;0.298;2023-04-03T04:23:33;19.40;;;3.40;;
22614;SDS011;11474;50.790;0.298;2023-04-03T04:26:02;14.73;;;3.47;;
22614;SDS011;11474;50.790;0.298;2023-04-03T04:28:28;15.10;;;3.15;;
22614;SDS011;11474;50.790;0.298;2023-04-03T04:30:54;20.52;;;3.40;;
22614;SDS011;11474;50.790;0.298;2023-04-03T04:33:20;17.23;;;3.57;;
22614;SDS011;11474;50.790;0.298;2023-04-03T04:35:47;10.50;;;3.00;;
22614;SDS011;11474;50.790;0.298;2023-04-03T04:38:13;19.97;;;4.20;;
22614;SDS011;11474;50.790;0.298;2023-04-03T04:40:39;13.80;;;4.20;;
22614;SDS011;11474;50.790;0.298;2023-04-03T04:43:06;13.20;;;3.60;;
22614;SDS011;11474;50.790;0.298;2023-04-03T04:45:32;16.17;;;3.28;;
22614;SDS011;11474;50.790;0.298;2023-04-03T04:47:58;14.02;;;3.50;;
22614;SDS011;11474;50.790;0.298;2023-04-03T04:50:24;16.00;;;3.83;;
22614;SDS011;11474;50.790;0.298;2023-04-03T04:52:51;18.75;;;4.53;;
22614;SDS011;11474;50.790;0.298;2023-04-03T04:55:17;12.40;;;3.17;;
22614;SDS011;11474;50.790;0.298;2023-04-03T04:57:43;12.27;;;3.45;;
22614;SDS011;11474;50.790;0.298;2023-04-03T05:00:09;18.38;;;3.45;;
22614;SDS011;11474;50.790;0.298;2023-04-03T05:02:35;15.85;;;4.05;;
22614;SDS011;11474;50.790;0.298;2023-04-03T05:05:01;16.33;;;3.90;;
22614;SDS011;11474;50.790;0.298;2023-04-03T05:07:28;13.15;;;3.63;;
22614;SDS011;11474;50.790;0.298;2023-04-03T05:09:54;11.77;;;3.70;;
22614;SDS011;11474;50.790;0.298;2023-04-03T05:12:20;18.42;;;4.68;;
22614;SDS011;11474;50.790;0.298;2023-04-03T05:14:47;14.13;;;3.53;;
22614;SDS011;11474;50.790;0.298;2023-04-03T05:17:13;11.98;;;3.40;;
22614;SDS011;11474;50.790;0.298;2023-04-03T05:19:39;16.73;;;4.10;;
22614;SDS011;11474;50.790;0.298;2023-04-03T05:22:05;19.35;;;3.80;;
22614;SDS011;11474;50.790;0.298;2023-04-03T05:24:31;18.40;;;3.67;;
22614;SDS011;11474;50.790;0.298;2023-04-03T05:26:58;14.40;;;4.07;;
22614;SDS011;11474;50.790;0.298;2023-04-03T05:29:24;18.58;;;4.28;;
22614;SDS011;11474;50.790;0.298;2023-04-03T05:31:50;12.93;;;3.95;;
22614;SDS011;11474;50.790;0.298;2023-04-03T05:34:16;17.13;;;3.80;;
22614;SDS011;11474;50.790;0.298;2023-04-03T05:36:42;19.10;;;3.85;;
22614;SDS011;11474;50.790;0.298;2023-04-03T05:39:09;17.65;;;3.80;;
22614;SDS011;11474;50.790;0.298;2023-04-03T05:41:35;18.75;;;4.38;;
22614;SDS011;11474;50.790;0.298;2023-04-03T05:44:01;14.65;;;3.88;;
22614;SDS011;11474;50.790;0.298;2023-04-03T05:46:27;14.15;;;3.92;;
22614;SDS011;11474;50.790;0.298;2023-04-03T05:48:56;18.67;;;4.63;;
22614;SDS011;11474;50.790;0.298;2023-04-03T05:51:23;15.55;;;3.90;;
22614;SDS011;11474;50.790;0.298;2023-04-03T05:54:12;15.82;;;4.10;;
22614;SDS011;11474;50.790;0.298;2023-04-03T05:56:37;19.67;;;4.20;;
22614;SDS011;11474;50.790;0.298;2023-04-03T05:59:03;14.70;;;4.03;;
22614;SDS011;11474;50.790;0.298;2023-04-03T06:01:29;23.17;;;4.22;;
22614;SDS011;11474;50.790;0.298;2023-04-03T06:03:55;16.80;;;4.30;;
22614;SDS011;11474;50.790;0.298;2023-04-03T06:06:23;18.43;;;4.43;;
22614;SDS011;11474;50.790;0.298;2023-04-03T06:08:49;17.67;;;4.20;;
22614;SDS011;11474;50.790;0.298;2023-04-03T06:11:15;15.55;;;4.57;;
22614;SDS011;11474;50.790;0.298;2023-04-03T06:13:41;12.20;;;4.80;;
22614;SDS011;11474;50.790;0.298;2023-04-03T06:16:09;14.88;;;4.65;;
22614;SDS011;11474;50.790;0.298;2023-04-03T06:18:40;17.42;;;4.43;;
22614;SDS011;11474;50.790;0.298;2023-04-03T06:21:06;13.00;;;4.60;;
22614;SDS011;11474;50.790;0.298;2023-04-03T06:23:33;14.48;;;4.47;;
22614;SDS011;11474;50.790;0.298;2023-04-03T06:25:59;16.73;;;4.60;;
22614;SDS011;11474;50.790;0.298;2023-04-03T06:28:25;21.13;;;4.40;;
22614;SDS011;11474;50.790;0.298;2023-04-03T06:30:51;18.40;;;4.63;;
22614;SDS011;11474;50.790;0.298;2023-04-03T06:33:17;15.55;;;4.38;;
22614;SDS011;11474;50.790;0.298;2023-04-03T06:35:43;20.92;;;5.10;;
22614;SDS011;11474;50.790;0.298;2023-04-03T06:38:09;13.73;;;4.53;;
22614;SDS011;11474;50.790;0.298;2023-04-03T06:40:36;16.42;;;4.68;;
22614;SDS011;11474;50.790;0.298;2023-04-03T06:43:02;19.40;;;4.65;;
22614;SDS011;11474;50.790;0.298;2023-04-03T06:45:28;18.92;;;4.60;;
22614;SDS011;11474;50.790;0.298;2023-04-03T06:47:54;14.18;;;5.05;;
22614;SDS011;11474;50.790;0.298;2023-04-03T06:50:20;21.70;;;4.90;;
22614;SDS011;11474;50.790;0.298;2023-04-03T06:52:46;17.05;;;4.80;;
22614;SDS011;11474;50.790;0.298;2023-04-03T06:55:13;14.30;;;4.43;;
22614;SDS011;11474;50.790;0.298;2023-04-03T06:57:39;19.57;;;5.20;;
22614;SDS011;11474;50.790;0.298;2023-04-03T07:00:05;19.92;;;4.88;;
22614;SDS011;11474;50.790;0.298;2023-04-03T07:02:32;15.80;;;5.28;;
22614;SDS011;11474;50.790;0.298;2023-04-03T07:04:58;15.43;;;4.70;;
22614;SDS011;11474;50.790;0.298;2023-04-03T07:07:24;16.90;;;5.10;;
22614;SDS011;11474;50.790;0.298;2023-04-03T07:09:50;15.85;;;4.63;;
22614;SDS011;11474;50.790;0.298;2023-04-03T07:12:16;19.23;;;5.30;;
22614;SDS011;11474;50.790;0.298;2023-04-03T07:14:43;19.25;;;5.20;;
22614;SDS011;11474;50.790;0.298;2023-04-03T07:17:09;16.73;;;5.10;;
22614;SDS011;11474;50.790;0.298;2023-04-03T07:19:35;18.65;;;5.18;;
22614;SDS011;11474;50.790;0.298;2023-04-03T07:22:01;16.10;;;5.03;;
22614;SDS011;11474;50.790;0.298;2023-04-03T07:24:28;13.05;;;4.82;;
22614;SDS011;11474;50.790;0.298;2023-04-03T07:26:54;19.02;;;4.88;;
22614;SDS011;11474;50.790;0.298;2023-04-03T07:29:20;17.80;;;5.05;;
22614;SDS011;11474;50.790;0.298;2023-04-03T07:31:47;21.23;;;5.15;;
22614;SDS011;11474;50.790;0.298;2023-04-03T07:34:13;14.13;;;4.50;;
22614;SDS011;11474;50.790;0.298;2023-04-03T07:36:39;19.20;;;5.30;;
22614;SDS011;11474;50.790;0.298;2023-04-03T07:39:05;18.00;;;5.10;;
22614;SDS011;11474;50.790;0.298;2023-04-03T07:41:33;18.30;;;5.22;;
22614;SDS011;11474;50.790;0.298;2023-04-03T07:43:59;19.95;;;5.20;;
22614;SDS011;11474;50.790;0.298;2023-04-03T07:46:26;16.65;;;5.20;;
22614;SDS011;11474;50.790;0.298;2023-04-03T07:48:52;15.25;;;5.18;;
22614;SDS011;11474;50.790;0.298;2023-04-03T07:51:18;14.75;;;4.65;;
22614;SDS011;11474;50.790;0.298;2023-04-03T07:53:45;21.48;;;5.20;;
22614;SDS011;11474;50.790;0.298;2023-04-03T07:56:11;15.27;;;4.40;;
22614;SDS011;11474;50.790;0.298;2023-04-03T07:58:37;15.27;;;4.53;;
22614;SDS011;11474;50.790;0.298;2023-04-03T08:01:03;16.02;;;4.32;;
22614;SDS011;11474;50.790;0.298;2023-04-03T08:03:30;14.57;;;4.60;;
22614;SDS011;11474;50.790;0.298;2023-04-03T08:06:00;17.90;;;4.50;;
22614;SDS011;11474;50.790;0.298;2023-04-03T08:08:28;13.93;;;4.10;;
22614;SDS011;11474;50.790;0.298;2023-04-03T08:10:55;15.32;;;4.18;;
22614;SDS011;11474;50.790;0.298;2023-04-03T08:13:21;14.25;;;4.60;;
22614;SDS011;11474;50.790;0.298;2023-04-03T08:15:48;15.73;;;4.47;;
22614;SDS011;11474;50.790;0.298;2023-04-03T08:18:14;13.77;;;4.57;;
22614;SDS011;11474;50.790;0.298;2023-04-03T08:20:41;16.38;;;4.43;;
22614;SDS011;11474;50.790;0.298;2023-04-03T08:23:07;10.43;;;4.18;;
22614;SDS011;11474;50.790;0.298;2023-04-03T08:25:37;11.05;;;4.47;;
22614;SDS011;11474;50.790;0.298;2023-04-03T08:28:04;14.35;;;5.80;;
22614;SDS011;11474;50.790;0.298;2023-04-03T08:30:30;19.05;;;6.50;;
22614;SDS011;11474;50.790;0.298;2023-04-03T08:32:56;14.98;;;6.40;;
22614;SDS011;11474;50.790;0.298;2023-04-03T08:35:22;19.03;;;6.93;;
22614;SDS011;11474;50.790;0.298;2023-04-03T08:37:48;19.83;;;6.97;;
22614;SDS011;11474;50.790;0.298;2023-04-03T08:40:15;15.63;;;6.63;;
22614;SDS011;11474;50.790;0.298;2023-04-03T08:45:50;18.10;;;7.63;;
22614;SDS011;11474;50.790;0.298;2023-04-03T08:48:19;15.47;;;7.47;;
22614;SDS011;11474;50.790;0.298;2023-04-03T08:50:47;16.98;;;8.02;;
22614;SDS011;11474;50.790;0.298;2023-04-03T08:53:15;18.60;;;8.20;;
22614;SDS011;11474;50.790;0.298;2023-04-03T08:55:43;17.10;;;7.82;;
22614;SDS011;11474;50.790;0.298;2023-04-03T09:03:13;16.88;;;8.43;;
22614;SDS011;11474;50.790;0.298;2023-04-03T09:05:50;18.88;;;9.07;;
22614;SDS011;11474;50.790;0.298;2023-04-03T09:08:28;19.52;;;9.73;;
22614;SDS011;11474;50.790;0.298;2023-04-03T09:11:00;21.00;;;8.98;;
22614;SDS011;11474;50.790;0.298;2023-04-03T09:16:20;15.45;;;6.95;;
22614;SDS011;11474;50.790;0.298;2023-04-03T09:18:48;14.95;;;6.85;;
22614;SDS011;11474;50.790;0.298;2023-04-03T09:21:19;16.30;;;7.03;;
22614;SDS011;11474;50.790;0.298;2023-04-03T09:23:50;13.60;;;6.43;;
22614;SDS011;11474;50.790;0.298;2023-04-03T09:28:43;15.05;;;6.57;;
22614;SDS011;11474;50.790;0.298;2023-04-03T09:34:26;11.60;;;5.50;;
22614;SDS011;11474;50.790;0.298;2023-04-03T09:36:52;10.18;;;3.97;;
22614;SDS011;11474;50.790;0.298;2023-04-03T09:39:19;12.27;;;4.57;;
22614;SDS011;11474;50.790;0.298;2023-04-03T09:41:55;16.63;;;4.93;;
22614;SDS011;11474;50.790;0.298;2023-04-03T09:44:22;11.13;;;4.40;;
22614;SDS011;11474;50.790;0.298;2023-04-03T09:46:49;14.48;;;4.68;;
22614;SDS011;11474;50.790;0.298;2023-04-03T09:49:15;11.65;;;4.25;;
22614;SDS011;11474;50.790;0.298;2023-04-03T09:51:42;11.57;;;4.07;;
22614;SDS011;11474;50.790;0.298;2023-04-03T09:56:54;13.80;;;4.10;;
22614;SDS011;11474;50.790;0.298;2023-04-03T09:59:21;9.50;;;3.67;;
22614;SDS011;11474;50.790;0.298;2023-04-03T10:02:02;10.80;;;3.08;;
22614;SDS011;11474;50.790;0.298;2023-04-03T10:04:40;8.80;;;3.05;;
22614;SDS011;11474;50.790;0.298;2023-04-03T10:07:26;13.25;;;3.70;;
22614;SDS011;11474;50.790;0.298;2023-04-03T10:09:57;9.82;;;3.55;;
22614;SDS011;11474;50.790;0.298;2023-04-03T10:12:23;9.77;;;3.00;;
22614;SDS011;11474;50.790;0.298;2023-04-03T10:27:55;9.77;;;2.83;;
22614;SDS011;11474;50.790;0.298;2023-04-03T10:38:09;7.35;;;2.75;;
22614;SDS011;11474;50.790;0.298;2023-04-03T10:40:52;7.93;;;2.80;;
22614;SDS011;11474;50.790;0.298;2023-04-03T10:43:28;7.32;;;2.80;;
22614;SDS011;11474;50.790;0.298;2023-04-03T10:48:32;14.88;;;2.95;;
22614;SDS011;11474;50.790;0.298;2023-04-03T10:51:06;6.82;;;2.50;;
22614;SDS011;11474;50.790;0.298;2023-04-03T10:53:36;7.75;;;2.70;;
22614;SDS011;11474;50.790;0.298;2023-04-03T10:56:19;8.07;;;2.47;;
22614;SDS011;11474;50.790;0.298;2023-04-03T10:58:52;7.10;;;2.85;;
22614;SDS011;11474;50.790;0.298;2023-04-03T11:01:21;11.50;;;2.90;;
22614;SDS011;11474;50.790;0.298;2023-04-03T11:03:49;10.38;;;2.90;;
22614;SDS011;11474;50.790;0.298;2023-04-03T11:06:17;10.48;;;3.10;;
22614;SDS011;11474;50.790;0.298;2023-04-03T11:08:46;9.93;;;3.50;;
22614;SDS011;11474;50.790;0.298;2023-04-03T11:11:37;7.30;;;2.80;;
22614;SDS011;11474;50.790;0.298;2023-04-03T11:14:14;9.98;;;2.80;;
22614;SDS011;11474;50.790;0.298;2023-04-03T11:16:45;8.88;;;3.00;;
22614;SDS011;11474;50.790;0.298;2023-04-03T11:19:19;8.10;;;3.10;;
22614;SDS011;11474;50.790;0.298;2023-04-03T11:22:01;8.20;;;2.65;;
22614;SDS011;11474;50.790;0.298;2023-04-03T11:24:31;12.20;;;3.28;;
22614;SDS011;11474;50.790;0.298;2023-04-03T11:26:58;8.50;;;2.88;;
22614;SDS011;11474;50.790;0.298;2023-04-03T11:29:27;9.85;;;2.80;;
22614;SDS011;11474;50.790;0.298;2023-04-03T11:36:56;7.93;;;2.80;;
22614;SDS011;11474;50.790;0.298;2023-04-03T11:41:54;10.00;;;2.90;;
22614;SDS011;11474;50.790;0.298;2023-04-03T11:44:36;8.43;;;2.88;;
22614;SDS011;11474;50.790;0.298;2023-04-03T11:47:04;9.38;;;2.97;;
22614;SDS011;11474;50.790;0.298;2023-04-03T11:49:50;8.63;;;2.95;;
22614;SDS011;11474;50.790;0.298;2023-04-03T11:55:01;7.57;;;2.80;;
22614;SDS011;11474;50.790;0.298;2023-04-03T11:57:44;7.15;;;2.53;;
22614;SDS011;11474;50.790;0.298;2023-04-03T12:02:55;6.93;;;2.42;;
22614;SDS011;11474;50.790;0.298;2023-04-03T12:05:29;7.07;;;2.80;;
22614;SDS011;11474;50.790;0.298;2023-04-03T12:10:40;9.65;;;2.65;;
22614;SDS011;11474;50.790;0.298;2023-04-03T12:13:12;9.52;;;2.70;;
22614;SDS011;11474;50.790;0.298;2023-04-03T12:21:04;9.48;;;2.70;;
22614;SDS011;11474;50.790;0.298;2023-04-03T12:23:31;7.10;;;2.67;;
22614;SDS011;11474;50.790;0.298;2023-04-03T12:26:31;5.43;;;2.30;;
22614;SDS011;11474;50.790;0.298;2023-04-03T12:28:51;7.57;;;2.70;;
22614;SDS011;11474;50.790;0.298;2023-04-03T12:31:18;7.35;;;2.80;;
22614;SDS011;11474;50.790;0.298;2023-04-03T12:33:52;9.18;;;2.53;;
22614;SDS011;11474;50.790;0.298;2023-04-03T12:39:25;8.88;;;2.67;;
22614;SDS011;11474;50.790;0.298;2023-04-03T12:42:18;10.57;;;2.85;;
22614;SDS011;11474;50.790;0.298;2023-04-03T12:44:54;7.63;;;2.55;;
22614;SDS011;11474;50.790;0.298;2023-04-03T12:47:27;9.85;;;2.75;;
22614;SDS011;11474;50.790;0.298;2023-04-03T12:49:53;7.05;;;2.45;;
22614;SDS011;11474;50.790;0.298;2023-04-03T12:54:50;7.55;;;2.80;;
22614;SDS011;11474;50.790;0.298;2023-04-03T12:59:43;9.15;;;3.10;;
22614;SDS011;11474;50.790;0.298;2023-04-03T13:02:21;9.00;;;3.30;;
22614;SDS011;11474;50.790;0.298;2023-04-03T13:04:49;7.03;;;2.80;;
22614;SDS011;11474;50.790;0.298;2023-04-03T13:12:33;8.90;;;3.03;;
22614;SDS011;11474;50.790;0.298;2023-04-03T13:15:01;10.73;;;3.38;;
22614;SDS011;11474;50.790;0.298;2023-04-03T13:17:29;12.32;;;3.17;;
22614;SDS011;11474;50.790;0.298;2023-04-03T13:19:57;7.50;;;2.80;;
22614;SDS011;11474;50.790;0.298;2023-04-03T13:22:36;12.00;;;3.00;;
22614;SDS011;11474;50.790;0.298;2023-04-03T13:25:09;13.70;;;3.10;;
22614;SDS011;11474;50.790;0.298;2023-04-03T13:27:36;7.43;;;2.78;;
22614;SDS011;11474;50.790;0.298;2023-04-03T13:30:04;10.00;;;2.90;;
22614;SDS011;11474;50.790;0.298;2023-04-03T13:32:31;6.93;;;2.88;;
22614;SDS011;11474;50.790;0.298;2023-04-03T13:34:57;11.48;;;2.90;;
22614;SDS011;11474;50.790;0.298;2023-04-03T13:37:25;10.52;;;3.15;;
22614;SDS011;11474;50.790;0.298;2023-04-03T13:42:28;17.00;;;3.40;;
22614;SDS011;11474;50.790;0.298;2023-04-03T13:47:40;11.07;;;3.33;;
22614;SDS011;11474;50.790;0.298;2023-04-03T13:50:23;8.10;;;3.30;;
22614;SDS011;11474;50.790;0.298;2023-04-03T13:52:59;10.48;;;3.53;;
22614;SDS011;11474;50.790;0.298;2023-04-03T13:55:31;9.23;;;3.47;;
22614;SDS011;11474;50.790;0.298;2023-04-03T13:57:58;10.60;;;3.35;;
22614;SDS011;11474;50.790;0.298;2023-04-03T14:00:39;11.57;;;3.45;;
22614;SDS011;11474;50.790;0.298;2023-04-03T14:03:12;10.60;;;3.28;;
22614;SDS011;11474;50.790;0.298;2023-04-03T14:05:39;9.63;;;3.63;;
22614;SDS011;11474;50.790;0.298;2023-04-03T14:08:05;10.00;;;3.85;;
22614;SDS011;11474;50.790;0.298;2023-04-03T14:10:32;10.67;;;3.57;;
22614;SDS011;11474;50.790;0.298;2023-04-03T14:12:58;12.05;;;3.47;;
22614;SDS011;11474;50.790;0.298;2023-04-03T14:15:26;9.50;;;3.50;;
22614;SDS011;11474;50.790;0.298;2023-04-03T14:17:53;8.88;;;3.50;;
22614;SDS011;11474;50.790;0.298;2023-04-03T14:20:21;12.35;;;3.55;;
22614;SDS011;11474;50.790;0.298;2023-04-03T14:22:48;9.48;;;3.50;;
22614;SDS011;11474;50.790;0.298;2023-04-03T14:25:16;14.15;;;4.35;;
22614;SDS011;11474;50.790;0.298;2023-04-03T14:27:43;13.27;;;3.70;;
22614;SDS011;11474;50.790;0.298;2023-04-03T14:30:17;11.23;;;3.75;;
22614;SDS011;11474;50.790;0.298;2023-04-03T14:32:44;11.63;;;3.80;;
22614;SDS011;11474;50.790;0.298;2023-04-03T14:35:10;11.15;;;4.18;;
22614;SDS011;11474;50.790;0.298;2023-04-03T14:37:36;11.75;;;3.58;;
22614;SDS011;11474;50.790;0.298;2023-04-03T14:40:03;15.63;;;3.92;;
22614;SDS011;11474;50.790;0.298;2023-04-03T14:42:31;16.42;;;4.10;;
22614;SDS011;11474;50.790;0.298;2023-04-03T14:44:58;13.90;;;4.30;;
22614;SDS011;11474;50.790;0.298;2023-04-03T14:47:25;11.65;;;4.13;;
22614;SDS011;11474;50.790;0.298;2023-04-03T14:49:53;12.77;;;4.38;;
22614;SDS011;11474;50.790;0.298;2023-04-03T14:52:24;10.60;;;4.20;;
22614;SDS011;11474;50.790;0.298;2023-04-03T14:54:51;11.00;;;4.28;;
22614;SDS011;11474;50.790;0.298;2023-04-03T14:57:17;11.55;;;4.07;;
22614;SDS011;11474;50.790;0.298;2023-04-03T14:59:44;14.07;;;4.38;;
22614;SDS011;11474;50.790;0.298;2023-04-03T15:04:42;14.47;;;4.47;;
22614;SDS011;11474;50.790;0.298;2023-04-03T15:07:08;10.80;;;4.20;;
22614;SDS011;11474;50.790;0.298;2023-04-03T15:09:34;9.93;;;4.30;;
22614;SDS011;11474;50.790;0.298;2023-04-03T15:12:01;15.88;;;4.72;;
22614;SDS011;11474;50.790;0.298;2023-04-03T15:14:27;12.90;;;4.60;;
22614;SDS011;11474;50.790;0.298;2023-04-03T15:16:53;14.48;;;5.25;;
22614;SDS011;11474;50.790;0.298;2023-04-03T15:19:19;12.43;;;5.13;;
22614;SDS011;11474;50.790;0.298;2023-04-03T15:21:45;14.52;;;4.65;;
22614;SDS011;11474;50.790;0.298;2023-04-03T15:24:12;15.77;;;4.88;;
22614;SDS011;11474;50.790;0.298;2023-04-03T15:26:38;16.95;;;5.30;;
22614;SDS011;11474;50.790;0.298;2023-04-03T15:29:04;14.27;;;4.85;;
22614;SDS011;11474;50.790;0.298;2023-04-03T15:31:30;14.38;;;4.82;;
22614;SDS011;11474;50.790;0.298;2023-04-03T15:33:57;13.02;;;4.97;;
22614;SDS011;11474;50.790;0.298;2023-04-03T15:36:23;12.50;;;4.80;;
22614;SDS011;11474;50.790;0.298;2023-04-03T15:38:49;16.83;;;4.70;;
22614;SDS011;11474;50.790;0.298;2023-04-03T15:41:15;10.95;;;4.18;;
22614;SDS011;11474;50.790;0.298;2023-04-03T15:43:41;13.88;;;4.18;;
22614;SDS011;11474;50.790;0.298;2023-04-03T15:46:07;16.35;;;4.78;;
22614;SDS011;11474;50.790;0.298;2023-04-03T15:48:33;10.27;;;4.53;;
22614;SDS011;11474;50.790;0.298;2023-04-03T15:50:59;16.03;;;4.97;;
22614;SDS011;11474;50.790;0.298;2023-04-03T15:53:26;11.90;;;3.78;;
22614;SDS011;11474;50.790;0.298;2023-04-03T15:55:52;12.03;;;4.37;;
22614;SDS011;11474;50.790;0.298;2023-04-03T15:58:18;12.90;;;4.38;;
22614;SDS011;11474;50.790;0.298;2023-04-03T16:00:44;10.38;;;3.83;;
22614;SDS011;11474;50.790;0.298;2023-04-03T16:03:11;10.57;;;4.28;;
22614;SDS011;11474;50.790;0.298;2023-04-03T16:05:38;12.00;;;4.78;;
22614;SDS011;11474;50.790;0.298;2023-04-03T16:08:05;16.10;;;5.03;;
22614;SDS011;11474;50.790;0.298;2023-04-03T16:10:33;15.57;;;4.60;;